sensor_id;sensor_type;location;lat;lon;timestamp;temperature;humidity
54558;DHT22;40452;50.080;20.040;2023-04-25T03:10:38;21.80;49.20
54558;DHT22;40452;50.080;20.040;2023-04-25T03:13:04;21.70;49.50
54558;DHT22;40452;50.080;20.040;2023-04-25T03:15:33;21.80;48.90
54558;DHT22;40452;50.080;20.040;2023-04-25T03:17:58;21.80;48.80
54558;DHT22;40452;50.080;20.040;2023-04-25T03:20:24;21.80;49.50
54558;DHT22;40452;50.080;20.040;2023-04-25T03:22:50;21.80;49.30
54558;DHT22;40452;50.080;20.040;2023-04-25T03:25:15;21.80;49.40
54558;DHT22;40452;50.080;20.040;2023-04-25T03:27:41;21.80;49.40
54558;DHT22;40452;50.080;20.040;2023-04-25T03:30:07;21.90;49.50
54558;DHT22;40452;50.080;20.040;2023-04-25T03:32:34;21.90;49.50
54558;DHT22;40452;50.080;20.040;2023-04-25T03:35:00;21.90;49.90
54558;DHT22;40452;50.080;20.040;2023-04-25T03:37:25;21.90;49.60
54558;DHT22;40452;50.080;20.040;2023-04-25T03:39:51;21.90;49.40
54558;DHT22;40452;50.080;20.040;2023-04-25T03:42:17;21.90;49.00
54558;DHT22;40452;50.080;20.040;2023-04-25T03:44:43;21.90;48.90
54558;DHT22;40452;50.080;20.040;2023-04-25T03:47:08;21.90;48.90
54558;DHT22;40452;50.080;20.040;2023-04-25T03:49:34;21.80;48.80
54558;DHT22;40452;50.080;20.040;2023-04-25T03:52:01;21.80;48.80
54558;DHT22;40452;50.080;20.040;2023-04-25T03:54:26;21.80;48.70
54558;DHT22;40452;50.080;20.040;2023-04-25T03:56:52;21.80;48.60
54558;DHT22;40452;50.080;20.040;2023-04-25T03:59:17;21.80;48.90
54558;DHT22;40452;50.080;20.040;2023-04-25T04:01:43;21.90;49.00
54558;DHT22;40452;50.080;20.040;2023-04-25T04:04:08;21.90;49.00
54558;DHT22;40452;50.080;20.040;2023-04-25T04:06:34;21.90;49.00
54558;DHT22;40452;50.080;20.040;2023-04-25T04:08:59;21.80;48.90
54558;DHT22;40452;50.080;20.040;2023-04-25T04:11:25;21.80;48.90
54558;DHT22;40452;50.080;20.040;2023-04-25T04:13:51;21.80;48.90
54558;DHT22;40452;50.080;20.040;2023-04-25T04:16:16;21.80;48.90
54558;DHT22;40452;50.080;20.040;2023-04-25T04:18:42;21.80;48.90
54558;DHT22;40452;50.080;20.040;2023-04-25T04:21:07;21.80;48.90
54558;DHT22;40452;50.080;20.040;2023-04-25T04:23:33;21.80;48.90
54558;DHT22;40452;50.080;20.040;2023-04-25T04:25:59;21.80;48.90
54558;DHT22;40452;50.080;20.040;2023-04-25T04:28:25;21.80;48.80
54558;DHT22;40452;50.080;20.040;2023-04-25T04:30:51;21.80;48.80
54558;DHT22;40452;50.080;20.040;2023-04-25T04:33:17;21.80;48.70
54558;DHT22;40452;50.080;20.040;2023-04-25T04:35:46;21.80;48.70
54558;DHT22;40452;50.080;20.040;2023-04-25T04:38:13;21.80;48.80
54558;DHT22;40452;50.080;20.040;2023-04-25T04:40:40;21.80;48.90
54558;DHT22;40452;50.080;20.040;2023-04-25T04:43:08;21.80;49.00
54558;DHT22;40452;50.080;20.040;2023-04-25T04:45:36;21.80;49.10
54558;DHT22;40452;50.080;20.040;2023-04-25T04:48:05;21.80;49.10
54558;DHT22;40452;50.080;20.040;2023-04-25T04:50:30;21.80;49.20
54558;DHT22;40452;50.080;20.040;2023-04-25T04:52:57;21.80;49.20
54558;DHT22;40452;50.080;20.040;2023-04-25T04:55:23;21.80;49.20
54558;DHT22;40452;50.080;20.040;2023-04-25T04:57:49;21.80;49.20
54558;DHT22;40452;50.080;20.040;2023-04-25T05:00:14;21.80;49.50
54558;DHT22;40452;50.080;20.040;2023-04-25T05:02:41;21.80;49.40
54558;DHT22;40452;50.080;20.040;2023-04-25T05:05:07;21.80;49.40
54558;DHT22;40452;50.080;20.040;2023-04-25T05:07:33;21.80;49.00
54558;DHT22;40452;50.080;20.040;2023-04-25T05:09:59;21.80;49.40
54558;DHT22;40452;50.080;20.040;2023-04-25T05:12:24;21.80;49.20
54558;DHT22;40452;50.080;20.040;2023-04-25T05:14:50;21.80;49.20
54558;DHT22;40452;50.080;20.040;2023-04-25T05:17:15;21.90;49.20
54558;DHT22;40452;50.080;20.040;2023-04-25T05:19:41;21.90;49.20
54558;DHT22;40452;50.080;20.040;2023-04-25T05:22:06;21.90;49.20
54558;DHT22;40452;50.080;20.040;2023-04-25T05:24:32;21.90;49.20
54558;DHT22;40452;50.080;20.040;2023-04-25T05:26:57;21.90;49.20
54558;DHT22;40452;50.080;20.040;2023-04-25T05:29:23;21.90;49.20
54558;DHT22;40452;50.080;20.040;2023-04-25T05:31:49;21.80;49.20
54558;DHT22;40452;50.080;20.040;2023-04-25T05:34:14;21.80;48.10
54558;DHT22;40452;50.080;20.040;2023-04-25T05:36:41;21.80;49.10
54558;DHT22;40452;50.080;20.040;2023-04-25T05:39:07;21.80;49.20
54558;DHT22;40452;50.080;20.040;2023-04-25T05:41:34;21.80;49.20
54558;DHT22;40452;50.080;20.040;2023-04-25T05:43:59;21.80;49.20
54558;DHT22;40452;50.080;20.040;2023-04-25T05:46:25;21.80;49.70
54558;DHT22;40452;50.080;20.040;2023-04-25T05:48:50;21.80;49.10
54558;DHT22;40452;50.080;20.040;2023-04-25T05:51:16;21.80;49.20
54558;DHT22;40452;50.080;20.040;2023-04-25T05:53:44;21.30;46.40
54558;DHT22;40452;50.080;20.040;2023-04-25T05:56:10;20.20;48.00
54558;DHT22;40452;50.080;20.040;2023-04-25T05:58:36;19.60;48.20
54558;DHT22;40452;50.080;20.040;2023-04-25T06:01:01;19.20;48.40
54558;DHT22;40452;50.080;20.040;2023-04-25T06:03:28;18.80;48.90
54558;DHT22;40452;50.080;20.040;2023-04-25T06:05:53;18.40;50.00
54558;DHT22;40452;50.080;20.040;2023-04-25T06:08:19;18.30;50.60
54558;DHT22;40452;50.080;20.040;2023-04-25T06:10:44;18.10;51.00
54558;DHT22;40452;50.080;20.040;2023-04-25T06:13:10;18.00;51.30
54558;DHT22;40452;50.080;20.040;2023-04-25T06:15:35;17.90;51.30
54558;DHT22;40452;50.080;20.040;2023-04-25T06:18:01;17.80;51.40
54558;DHT22;40452;50.080;20.040;2023-04-25T06:20:26;17.80;51.20
54558;DHT22;40452;50.080;20.040;2023-04-25T06:22:52;17.50;51.70
54558;DHT22;40452;50.080;20.040;2023-04-25T06:25:18;17.50;51.70
54558;DHT22;40452;50.080;20.040;2023-04-25T06:27:43;17.30;52.10
54558;DHT22;40452;50.080;20.040;2023-04-25T06:30:09;17.30;52.40
54558;DHT22;40452;50.080;20.040;2023-04-25T06:32:36;17.30;52.80
54558;DHT22;40452;50.080;20.040;2023-04-25T06:35:02;17.10;52.60
54558;DHT22;40452;50.080;20.040;2023-04-25T06:37:28;17.10;52.20
54558;DHT22;40452;50.080;20.040;2023-04-25T06:39:54;16.80;54.20
54558;DHT22;40452;50.080;20.040;2023-04-25T06:42:19;16.80;52.90
54558;DHT22;40452;50.080;20.040;2023-04-25T06:44:45;16.70;52.50
54558;DHT22;40452;50.080;20.040;2023-04-25T06:47:10;16.60;52.50
54558;DHT22;40452;50.080;20.040;2023-04-25T06:49:36;16.60;52.80
54558;DHT22;40452;50.080;20.040;2023-04-25T06:52:02;16.40;53.40
54558;DHT22;40452;50.080;20.040;2023-04-25T06:54:28;16.50;54.00
54558;DHT22;40452;50.080;20.040;2023-04-25T06:56:55;16.50;53.90
54558;DHT22;40452;50.080;20.040;2023-04-25T06:59:21;16.50;53.90
54558;DHT22;40452;50.080;20.040;2023-04-25T07:01:46;16.40;54.80
54558;DHT22;40452;50.080;20.040;2023-04-25T07:04:12;16.90;54.60
54558;DHT22;40452;50.080;20.040;2023-04-25T07:06:37;17.50;54.70
54558;DHT22;40452;50.080;20.040;2023-04-25T07:09:09;17.90;54.20
54558;DHT22;40452;50.080;20.040;2023-04-25T07:11:36;18.20;53.60
54558;DHT22;40452;50.080;20.040;2023-04-25T07:14:01;18.50;53.10
54558;DHT22;40452;50.080;20.040;2023-04-25T07:16:27;18.70;52.70
54558;DHT22;40452;50.080;20.040;2023-04-25T07:18:53;18.80;52.30
54558;DHT22;40452;50.080;20.040;2023-04-25T07:21:18;18.90;52.10
54558;DHT22;40452;50.080;20.040;2023-04-25T07:23:44;19.10;51.80
54558;DHT22;40452;50.080;20.040;2023-04-25T07:26:09;19.20;51.60
54558;DHT22;40452;50.080;20.040;2023-04-25T07:28:35;19.30;51.30
54558;DHT22;40452;50.080;20.040;2023-04-25T07:31:00;19.40;51.10
54558;DHT22;40452;50.080;20.040;2023-04-25T14:34:10;21.50;44.40
54558;DHT22;40452;50.080;20.040;2023-04-25T14:36:36;21.40;44.20
54558;DHT22;40452;50.080;20.040;2023-04-25T14:39:02;21.40;43.70
54558;DHT22;40452;50.080;20.040;2023-04-25T14:41:28;21.40;43.70
54558;DHT22;40452;50.080;20.040;2023-04-25T14:43:53;21.40;44.00
54558;DHT22;40452;50.080;20.040;2023-04-25T14:46:20;21.30;45.70
54558;DHT22;40452;50.080;20.040;2023-04-25T14:48:46;21.40;45.40
54558;DHT22;40452;50.080;20.040;2023-04-25T14:51:12;21.40;45.50
54558;DHT22;40452;50.080;20.040;2023-04-25T14:53:38;21.40;45.50
54558;DHT22;40452;50.080;20.040;2023-04-25T14:56:03;21.40;45.50
54558;DHT22;40452;50.080;20.040;2023-04-25T14:58:29;21.40;45.60
54558;DHT22;40452;50.080;20.040;2023-04-25T15:00:54;21.30;45.50
54558;DHT22;40452;50.080;20.040;2023-04-25T15:03:20;21.40;45.60
54558;DHT22;40452;50.080;20.040;2023-04-25T15:05:45;21.40;45.60
54558;DHT22;40452;50.080;20.040;2023-04-25T15:08:11;21.40;45.70
54558;DHT22;40452;50.080;20.040;2023-04-25T15:10:36;21.40;45.70
54558;DHT22;40452;50.080;20.040;2023-04-25T15:13:03;21.40;45.70
54558;DHT22;40452;50.080;20.040;2023-04-25T15:15:29;21.40;45.90
54558;DHT22;40452;50.080;20.040;2023-04-25T15:17:55;21.40;45.90
54558;DHT22;40452;50.080;20.040;2023-04-25T15:20:22;21.40;45.90
54558;DHT22;40452;50.080;20.040;2023-04-25T15:22:50;21.40;46.00
54558;DHT22;40452;50.080;20.040;2023-04-25T15:25:16;21.40;46.00
54558;DHT22;40452;50.080;20.040;2023-04-25T15:27:45;21.40;46.10
54558;DHT22;40452;50.080;20.040;2023-04-25T15:30:14;21.40;46.20
54558;DHT22;40452;50.080;20.040;2023-04-25T15:32:44;21.40;46.30
54558;DHT22;40452;50.080;20.040;2023-04-25T15:35:10;21.40;46.30
54558;DHT22;40452;50.080;20.040;2023-04-25T15:37:36;21.50;46.40
54558;DHT22;40452;50.080;20.040;2023-04-25T15:40:20;21.50;46.50
54558;DHT22;40452;50.080;20.040;2023-04-25T15:42:47;21.50;46.50
54558;DHT22;40452;50.080;20.040;2023-04-25T15:45:16;21.50;46.70
54558;DHT22;40452;50.080;20.040;2023-04-25T15:47:42;21.50;46.80
54558;DHT22;40452;50.080;20.040;2023-04-25T15:50:08;21.50;47.00
54558;DHT22;40452;50.080;20.040;2023-04-25T15:52:35;21.50;46.80
54558;DHT22;40452;50.080;20.040;2023-04-25T15:55:01;21.50;46.80
54558;DHT22;40452;50.080;20.040;2023-04-25T15:57:27;21.50;46.90
54558;DHT22;40452;50.080;20.040;2023-04-25T15:59:52;21.50;46.90
54558;DHT22;40452;50.080;20.040;2023-04-25T16:02:18;21.50;47.00
54558;DHT22;40452;50.080;20.040;2023-04-25T16:04:44;21.50;46.90
54558;DHT22;40452;50.080;20.040;2023-04-25T16:07:12;21.50;47.00
54558;DHT22;40452;50.080;20.040;2023-04-25T16:09:37;21.50;47.00
54558;DHT22;40452;50.080;20.040;2023-04-25T16:12:03;21.50;46.90
54558;DHT22;40452;50.080;20.040;2023-04-25T16:14:29;21.50;46.80
54558;DHT22;40452;50.080;20.040;2023-04-25T16:16:55;21.50;46.80
54558;DHT22;40452;50.080;20.040;2023-04-25T16:19:21;21.50;46.70
54558;DHT22;40452;50.080;20.040;2023-04-25T16:21:47;21.50;46.70
54558;DHT22;40452;50.080;20.040;2023-04-25T16:24:12;21.50;46.60
54558;DHT22;40452;50.080;20.040;2023-04-25T16:26:38;21.50;46.60
54558;DHT22;40452;50.080;20.040;2023-04-25T16:29:06;21.50;47.20
54558;DHT22;40452;50.080;20.040;2023-04-25T16:31:32;21.50;46.50
54558;DHT22;40452;50.080;20.040;2023-04-25T16:33:58;21.50;46.50
54558;DHT22;40452;50.080;20.040;2023-04-25T16:36:24;21.50;46.40
54558;DHT22;40452;50.080;20.040;2023-04-25T16:38:50;21.50;46.50
54558;DHT22;40452;50.080;20.040;2023-04-25T16:41:15;21.50;46.40
54558;DHT22;40452;50.080;20.040;2023-04-25T16:43:41;21.50;46.40
54558;DHT22;40452;50.080;20.040;2023-04-25T16:46:06;21.50;46.30
54558;DHT22;40452;50.080;20.040;2023-04-25T16:48:32;21.50;46.30
54558;DHT22;40452;50.080;20.040;2023-04-25T16:50:58;21.50;46.30
54558;DHT22;40452;50.080;20.040;2023-04-25T16:53:23;21.50;46.30
54558;DHT22;40452;50.080;20.040;2023-04-25T16:55:49;21.50;46.30
54558;DHT22;40452;50.080;20.040;2023-04-25T16:58:15;21.50;46.30
54558;DHT22;40452;50.080;20.040;2023-04-25T17:00:41;21.50;46.30
54558;DHT22;40452;50.080;20.040;2023-04-25T17:03:07;21.50;46.30
54558;DHT22;40452;50.080;20.040;2023-04-25T17:05:34;21.50;46.30
54558;DHT22;40452;50.080;20.040;2023-04-25T17:07:59;21.50;46.20
54558;DHT22;40452;50.080;20.040;2023-04-25T17:10:25;21.50;46.20
54558;DHT22;40452;50.080;20.040;2023-04-25T17:12:51;21.50;46.20
54558;DHT22;40452;50.080;20.040;2023-04-25T17:15:19;21.50;46.20
54558;DHT22;40452;50.080;20.040;2023-04-25T17:17:45;21.50;46.20
54558;DHT22;40452;50.080;20.040;2023-04-25T17:20:14;21.50;46.20
54558;DHT22;40452;50.080;20.040;2023-04-25T17:22:39;21.50;46.10
54558;DHT22;40452;50.080;20.040;2023-04-25T17:25:07;21.50;46.10
54558;DHT22;40452;50.080;20.040;2023-04-25T17:27:33;21.50;46.20
54558;DHT22;40452;50.080;20.040;2023-04-25T17:30:05;21.50;46.20
54558;DHT22;40452;50.080;20.040;2023-04-25T17:32:31;21.50;46.30
54558;DHT22;40452;50.080;20.040;2023-04-25T17:34:57;21.50;46.30
54558;DHT22;40452;50.080;20.040;2023-04-25T17:37:24;21.50;46.30
54558;DHT22;40452;50.080;20.040;2023-04-25T17:39:58;21.50;46.30
54558;DHT22;40452;50.080;20.040;2023-04-25T17:42:24;21.50;46.30
54558;DHT22;40452;50.080;20.040;2023-04-25T17:44:52;21.50;46.30
54558;DHT22;40452;50.080;20.040;2023-04-25T17:47:19;21.50;46.40
54558;DHT22;40452;50.080;20.040;2023-04-25T17:49:45;21.50;46.40
54558;DHT22;40452;50.080;20.040;2023-04-25T17:52:10;21.50;46.50
54558;DHT22;40452;50.080;20.040;2023-04-25T17:54:36;21.50;46.50
54558;DHT22;40452;50.080;20.040;2023-04-25T17:57:01;21.50;46.50
54558;DHT22;40452;50.080;20.040;2023-04-25T17:59:28;21.50;46.40
54558;DHT22;40452;50.080;20.040;2023-04-25T18:01:54;21.50;46.50
54558;DHT22;40452;50.080;20.040;2023-04-25T18:04:20;21.50;46.70
54558;DHT22;40452;50.080;20.040;2023-04-25T18:06:46;21.50;46.70
54558;DHT22;40452;50.080;20.040;2023-04-25T18:09:11;21.50;46.70
54558;DHT22;40452;50.080;20.040;2023-04-25T18:11:45;21.60;46.70
54558;DHT22;40452;50.080;20.040;2023-04-25T18:14:12;21.50;46.70
54558;DHT22;40452;50.080;20.040;2023-04-25T18:16:42;21.50;46.70
54558;DHT22;40452;50.080;20.040;2023-04-25T18:19:09;21.50;46.70
54558;DHT22;40452;50.080;20.040;2023-04-25T18:21:44;21.50;46.90
54558;DHT22;40452;50.080;20.040;2023-04-25T18:24:13;21.60;46.90
54558;DHT22;40452;50.080;20.040;2023-04-25T18:26:42;21.60;46.90
54558;DHT22;40452;50.080;20.040;2023-04-25T18:29:09;21.60;46.90
54558;DHT22;40452;50.080;20.040;2023-04-25T18:31:35;21.60;47.10
54558;DHT22;40452;50.080;20.040;2023-04-25T18:34:01;21.60;47.30
54558;DHT22;40452;50.080;20.040;2023-04-25T18:36:26;21.60;47.20
54558;DHT22;40452;50.080;20.040;2023-04-25T18:38:54;21.60;47.10
54558;DHT22;40452;50.080;20.040;2023-04-25T18:41:23;21.50;47.10
54558;DHT22;40452;50.080;20.040;2023-04-25T18:43:50;21.60;47.40
54558;DHT22;40452;50.080;20.040;2023-04-25T18:46:15;21.50;47.20
54558;DHT22;40452;50.080;20.040;2023-04-25T18:48:42;21.60;47.40
54558;DHT22;40452;50.080;20.040;2023-04-25T18:51:07;21.60;47.40
54558;DHT22;40452;50.080;20.040;2023-04-25T18:53:33;21.60;47.50
54558;DHT22;40452;50.080;20.040;2023-04-25T18:55:59;21.60;47.60
54558;DHT22;40452;50.080;20.040;2023-04-25T18:58:25;21.60;47.70
54558;DHT22;40452;50.080;20.040;2023-04-25T19:00:53;21.60;47.60
54558;DHT22;40452;50.080;20.040;2023-04-25T19:03:18;21.60;47.60
54558;DHT22;40452;50.080;20.040;2023-04-25T19:05:44;21.60;47.70
54558;DHT22;40452;50.080;20.040;2023-04-25T19:08:09;21.60;47.70
54558;DHT22;40452;50.080;20.040;2023-04-25T19:10:35;21.60;47.60
54558;DHT22;40452;50.080;20.040;2023-04-25T19:13:01;21.60;47.40
54558;DHT22;40452;50.080;20.040;2023-04-25T19:15:27;21.60;47.60
54558;DHT22;40452;50.080;20.040;2023-04-25T19:18:00;21.60;47.60
54558;DHT22;40452;50.080;20.040;2023-04-25T19:20:26;21.60;47.50
54558;DHT22;40452;50.080;20.040;2023-04-25T19:22:51;21.60;47.50
54558;DHT22;40452;50.080;20.040;2023-04-25T19:25:17;21.60;47.50
54558;DHT22;40452;50.080;20.040;2023-04-25T19:27:43;21.60;47.50
54558;DHT22;40452;50.080;20.040;2023-04-25T19:30:09;21.60;47.50
54558;DHT22;40452;50.080;20.040;2023-04-25T19:32:38;21.60;47.50
54558;DHT22;40452;50.080;20.040;2023-04-25T19:35:05;21.60;47.50
54558;DHT22;40452;50.080;20.040;2023-04-25T19:37:32;21.60;47.50
54558;DHT22;40452;50.080;20.040;2023-04-25T19:39:58;21.60;47.50
54558;DHT22;40452;50.080;20.040;2023-04-25T19:42:24;21.60;47.50
54558;DHT22;40452;50.080;20.040;2023-04-25T19:44:50;21.60;47.50
54558;DHT22;40452;50.080;20.040;2023-04-25T19:47:19;21.70;47.50
54558;DHT22;40452;50.080;20.040;2023-04-25T19:49:44;21.60;47.50
54558;DHT22;40452;50.080;20.040;2023-04-25T19:52:10;21.60;47.50
54558;DHT22;40452;50.080;20.040;2023-04-25T19:54:39;21.60;47.50
54558;DHT22;40452;50.080;20.040;2023-04-25T19:57:06;21.60;47.50
54558;DHT22;40452;50.080;20.040;2023-04-25T19:59:31;21.60;47.50
54558;DHT22;40452;50.080;20.040;2023-04-25T20:01:58;21.60;47.40
54558;DHT22;40452;50.080;20.040;2023-04-25T20:04:24;21.60;47.40
54558;DHT22;40452;50.080;20.040;2023-04-25T20:06:50;21.60;47.60
54558;DHT22;40452;50.080;20.040;2023-04-25T20:09:17;21.60;47.40
54558;DHT22;40452;50.080;20.040;2023-04-25T20:11:45;21.60;47.50
54558;DHT22;40452;50.080;20.040;2023-04-25T20:14:11;21.60;47.40
54558;DHT22;40452;50.080;20.040;2023-04-25T20:16:36;21.60;47.40
54558;DHT22;40452;50.080;20.040;2023-04-25T20:19:02;21.70;47.30
54558;DHT22;40452;50.080;20.040;2023-04-25T20:21:29;21.50;42.90
54558;DHT22;40452;50.080;20.040;2023-04-25T20:23:57;21.40;42.20
